sensor_id;sensor_type;location;lat;lon;timestamp;pressure;altitude;pressure_sealevel;temperature;humidity
41306;BME280;27051;50.376;19.152;2023-04-04T00:00:25;98830.38;;;1.59;51.56
41306;BME280;27051;50.376;19.152;2023-04-04T00:03:11;98826.41;;;1.58;51.62
41306;BME280;27051;50.376;19.152;2023-04-04T00:05:38;98827.67;;;1.53;51.65
41306;BME280;27051;50.376;19.152;2023-04-04T00:08:04;98830.01;;;1.53;51.82
41306;BME280;27051;50.376;19.152;2023-04-04T00:10:31;98831.48;;;1.50;51.82
41306;BME280;27051;50.376;19.152;2023-04-04T00:12:57;98831.20;;;1.43;51.59
41306;BME280;27051;50.376;19.152;2023-04-04T00:15:24;98829.01;;;1.34;51.83
41306;BME280;27051;50.376;19.152;2023-04-04T00:17:50;98827.88;;;1.30;51.87
41306;BME280;27051;50.376;19.152;2023-04-04T00:20:17;98826.61;;;1.30;52.21
41306;BME280;27051;50.376;19.152;2023-04-04T00:22:43;98822.72;;;1.24;52.26
41306;BME280;27051;50.376;19.152;2023-04-04T00:25:10;98827.48;;;1.22;52.25
41306;BME280;27051;50.376;19.152;2023-04-04T00:27:37;98821.44;;;1.19;52.23
41306;BME280;27051;50.376;19.152;2023-04-04T00:30:05;98821.73;;;1.15;52.24
41306;BME280;27051;50.376;19.152;2023-04-04T00:32:31;98819.46;;;1.12;52.52
41306;BME280;27051;50.376;19.152;2023-04-04T00:34:59;98818.91;;;1.07;52.68
41306;BME280;27051;50.376;19.152;2023-04-04T00:37:26;98819.52;;;1.03;52.65
41306;BME280;27051;50.376;19.152;2023-04-04T00:39:52;98822.25;;;0.97;52.55
41306;BME280;27051;50.376;19.152;2023-04-04T00:42:19;98822.12;;;0.92;52.49
41306;BME280;27051;50.376;19.152;2023-04-04T00:44:50;98818.31;;;0.93;52.88
41306;BME280;27051;50.376;19.152;2023-04-04T00:47:18;98819.27;;;0.94;53.11
41306;BME280;27051;50.376;19.152;2023-04-04T00:49:47;98821.89;;;0.91;52.89
41306;BME280;27051;50.376;19.152;2023-04-04T00:52:15;98825.36;;;0.86;52.99
41306;BME280;27051;50.376;19.152;2023-04-04T00:54:41;98825.59;;;0.79;53.24
41306;BME280;27051;50.376;19.152;2023-04-04T00:57:08;98827.71;;;0.70;53.22
41306;BME280;27051;50.376;19.152;2023-04-04T00:59:35;98826.93;;;0.62;53.25
41306;BME280;27051;50.376;19.152;2023-04-04T01:02:02;98827.93;;;0.62;53.45
41306;BME280;27051;50.376;19.152;2023-04-04T01:04:29;98830.41;;;0.72;53.41
41306;BME280;27051;50.376;19.152;2023-04-04T01:06:55;98829.98;;;0.78;53.57
41306;BME280;27051;50.376;19.152;2023-04-04T01:09:25;98834.30;;;0.77;53.22
41306;BME280;27051;50.376;19.152;2023-04-04T01:11:54;98830.76;;;0.76;53.40
41306;BME280;27051;50.376;19.152;2023-04-04T01:14:23;98829.80;;;0.75;53.36
41306;BME280;27051;50.376;19.152;2023-04-04T01:16:50;98826.74;;;0.77;53.39
41306;BME280;27051;50.376;19.152;2023-04-04T01:20:00;98830.02;;;0.74;53.34
41306;BME280;27051;50.376;19.152;2023-04-04T01:22:30;98826.46;;;0.72;53.58
41306;BME280;27051;50.376;19.152;2023-04-04T01:24:58;98827.13;;;0.69;53.42
41306;BME280;27051;50.376;19.152;2023-04-04T01:27:26;98827.01;;;0.67;53.58
41306;BME280;27051;50.376;19.152;2023-04-04T01:29:53;98826.94;;;0.63;53.53
41306;BME280;27051;50.376;19.152;2023-04-04T01:32:27;98827.14;;;0.62;53.73
41306;BME280;27051;50.376;19.152;2023-04-04T01:37:48;98834.48;;;0.51;53.74
41306;BME280;27051;50.376;19.152;2023-04-04T01:40:24;98835.23;;;0.47;53.73
41306;BME280;27051;50.376;19.152;2023-04-04T01:42:51;98833.67;;;0.42;53.87
41306;BME280;27051;50.376;19.152;2023-04-04T01:45:20;98838.41;;;0.38;53.91
41306;BME280;27051;50.376;19.152;2023-04-04T01:47:47;98838.48;;;0.34;54.08
41306;BME280;27051;50.376;19.152;2023-04-04T01:50:15;98841.56;;;0.34;54.16
41306;BME280;27051;50.376;19.152;2023-04-04T01:52:41;98841.90;;;0.31;54.21
41306;BME280;27051;50.376;19.152;2023-04-04T01:55:08;98839.61;;;0.20;54.27
41306;BME280;27051;50.376;19.152;2023-04-04T01:57:35;98838.29;;;0.14;54.27
41306;BME280;27051;50.376;19.152;2023-04-04T02:00:04;98837.92;;;0.15;54.38
41306;BME280;27051;50.376;19.152;2023-04-04T02:02:31;98841.95;;;0.23;54.33
41306;BME280;27051;50.376;19.152;2023-04-04T02:04:58;98844.66;;;0.26;54.32
41306;BME280;27051;50.376;19.152;2023-04-04T02:07:24;98845.90;;;0.29;54.48
41306;BME280;27051;50.376;19.152;2023-04-04T02:09:57;98850.86;;;0.33;54.33
41306;BME280;27051;50.376;19.152;2023-04-04T02:12:24;98850.45;;;0.28;54.35
41306;BME280;27051;50.376;19.152;2023-04-04T02:14:51;98850.20;;;0.30;54.56
41306;BME280;27051;50.376;19.152;2023-04-04T02:17:17;98849.98;;;0.30;54.50
41306;BME280;27051;50.376;19.152;2023-04-04T02:19:45;98850.65;;;0.26;54.49
41306;BME280;27051;50.376;19.152;2023-04-04T02:22:12;98856.82;;;0.24;54.57
41306;BME280;27051;50.376;19.152;2023-04-04T02:24:39;98853.59;;;0.22;54.66
41306;BME280;27051;50.376;19.152;2023-04-04T02:27:05;98856.04;;;0.19;54.63
41306;BME280;27051;50.376;19.152;2023-04-04T02:29:32;98853.52;;;0.16;54.70
41306;BME280;27051;50.376;19.152;2023-04-04T02:31:58;98851.90;;;0.10;54.65
41306;BME280;27051;50.376;19.152;2023-04-04T02:34:25;98854.38;;;0.09;54.98
41306;BME280;27051;50.376;19.152;2023-04-04T02:36:52;98854.14;;;0.07;54.85
41306;BME280;27051;50.376;19.152;2023-04-04T02:39:19;98852.92;;;0.01;55.07
41306;BME280;27051;50.376;19.152;2023-04-04T02:41:47;98849.02;;;0.00;55.05
41306;BME280;27051;50.376;19.152;2023-04-04T02:44:13;98850.55;;;0.01;55.13
41306;BME280;27051;50.376;19.152;2023-04-04T02:46:41;98847.65;;;0.01;55.11
41306;BME280;27051;50.376;19.152;2023-04-04T02:49:08;98850.56;;;0.03;55.28
41306;BME280;27051;50.376;19.152;2023-04-04T02:51:35;98845.71;;;-0.07;55.23
41306;BME280;27051;50.376;19.152;2023-04-04T02:54:03;98848.02;;;-0.09;55.31
41306;BME280;27051;50.376;19.152;2023-04-04T02:56:29;98848.78;;;-0.07;55.45
41306;BME280;27051;50.376;19.152;2023-04-04T02:58:56;98852.64;;;0.05;55.48
41306;BME280;27051;50.376;19.152;2023-04-04T03:01:22;98852.16;;;0.11;55.41
41306;BME280;27051;50.376;19.152;2023-04-04T03:03:49;98851.88;;;0.16;55.33
41306;BME280;27051;50.376;19.152;2023-04-04T03:06:16;98851.56;;;0.22;55.27
41306;BME280;27051;50.376;19.152;2023-04-04T03:08:42;98849.92;;;0.28;55.34
41306;BME280;27051;50.376;19.152;2023-04-04T03:11:09;98851.74;;;0.31;55.31
41306;BME280;27051;50.376;19.152;2023-04-04T03:13:36;98855.85;;;0.29;55.32
41306;BME280;27051;50.376;19.152;2023-04-04T03:16:04;98852.34;;;0.25;55.26
41306;BME280;27051;50.376;19.152;2023-04-04T03:18:31;98850.85;;;0.26;55.37
41306;BME280;27051;50.376;19.152;2023-04-04T03:20:58;98850.66;;;0.28;55.42
41306;BME280;27051;50.376;19.152;2023-04-04T03:23:24;98849.77;;;0.30;55.33
41306;BME280;27051;50.376;19.152;2023-04-04T03:25:50;98848.73;;;0.31;55.33
41306;BME280;27051;50.376;19.152;2023-04-04T03:28:17;98851.38;;;0.31;55.37
41306;BME280;27051;50.376;19.152;2023-04-04T03:30:44;98850.52;;;0.31;55.38
41306;BME280;27051;50.376;19.152;2023-04-04T03:33:10;98849.70;;;0.27;55.53
41306;BME280;27051;50.376;19.152;2023-04-04T03:35:39;98848.49;;;0.23;55.43
41306;BME280;27051;50.376;19.152;2023-04-04T03:38:07;98850.00;;;0.19;55.47
41306;BME280;27051;50.376;19.152;2023-04-04T03:40:34;98848.55;;;0.15;55.39
41306;BME280;27051;50.376;19.152;2023-04-04T03:43:01;98848.35;;;0.10;55.42
41306;BME280;27051;50.376;19.152;2023-04-04T03:45:28;98845.19;;;0.06;55.58
41306;BME280;27051;50.376;19.152;2023-04-04T03:47:55;98840.48;;;-0.01;55.90
41306;BME280;27051;50.376;19.152;2023-04-04T03:50:21;98842.78;;;0.01;56.12
41306;BME280;27051;50.376;19.152;2023-04-04T03:52:48;98844.75;;;0.03;55.89
41306;BME280;27051;50.376;19.152;2023-04-04T03:55:14;98846.95;;;0.13;55.91
41306;BME280;27051;50.376;19.152;2023-04-04T03:57:41;98848.64;;;0.18;56.00
41306;BME280;27051;50.376;19.152;2023-04-04T04:00:09;98842.34;;;0.25;56.00
41306;BME280;27051;50.376;19.152;2023-04-04T04:02:37;98841.00;;;0.31;55.90
41306;BME280;27051;50.376;19.152;2023-04-04T04:05:06;98837.08;;;0.35;55.98
41306;BME280;27051;50.376;19.152;2023-04-04T04:07:32;98835.73;;;0.33;55.87
41306;BME280;27051;50.376;19.152;2023-04-04T04:09:59;98832.70;;;0.31;55.85
41306;BME280;27051;50.376;19.152;2023-04-04T04:12:25;98832.90;;;0.29;55.84
41306;BME280;27051;50.376;19.152;2023-04-04T04:14:53;98833.56;;;0.24;55.94
41306;BME280;27051;50.376;19.152;2023-04-04T04:17:20;98835.13;;;0.16;55.86
41306;BME280;27051;50.376;19.152;2023-04-04T04:19:48;98830.64;;;0.09;55.81
41306;BME280;27051;50.376;19.152;2023-04-04T04:22:15;98829.82;;;0.07;56.02
41306;BME280;27051;50.376;19.152;2023-04-04T04:24:41;98821.77;;;0.05;56.29
41306;BME280;27051;50.376;19.152;2023-04-04T04:27:07;98826.89;;;0.03;56.12
41306;BME280;27051;50.376;19.152;2023-04-04T04:29:34;98825.51;;;0.03;56.17
41306;BME280;27051;50.376;19.152;2023-04-04T04:32:02;98823.07;;;0.02;56.27
41306;BME280;27051;50.376;19.152;2023-04-04T04:34:29;98825.59;;;0.01;56.14
41306;BME280;27051;50.376;19.152;2023-04-04T04:36:55;98822.16;;;0.01;56.35
41306;BME280;27051;50.376;19.152;2023-04-04T04:39:22;98821.30;;;-0.01;56.37
41306;BME280;27051;50.376;19.152;2023-04-04T04:41:49;98820.99;;;-0.01;56.19
41306;BME280;27051;50.376;19.152;2023-04-04T04:44:16;98821.21;;;-0.05;56.38
41306;BME280;27051;50.376;19.152;2023-04-04T04:46:43;98825.01;;;-0.06;56.38
41306;BME280;27051;50.376;19.152;2023-04-04T04:49:09;98825.30;;;-0.02;56.43
41306;BME280;27051;50.376;19.152;2023-04-04T04:51:36;98828.08;;;0.12;56.28
41306;BME280;27051;50.376;19.152;2023-04-04T04:54:13;98829.77;;;0.20;56.27
41306;BME280;27051;50.376;19.152;2023-04-04T04:56:40;98831.38;;;0.24;56.28
41306;BME280;27051;50.376;19.152;2023-04-04T04:59:07;98832.52;;;0.27;56.40
41306;BME280;27051;50.376;19.152;2023-04-04T05:01:34;98832.77;;;0.33;56.37
41306;BME280;27051;50.376;19.152;2023-04-04T05:04:01;98841.36;;;0.35;56.15
41306;BME280;27051;50.376;19.152;2023-04-04T05:06:27;98841.48;;;0.37;56.18
41306;BME280;27051;50.376;19.152;2023-04-04T05:08:54;98843.66;;;0.41;56.21
41306;BME280;27051;50.376;19.152;2023-04-04T05:11:21;98840.58;;;0.45;56.42
41306;BME280;27051;50.376;19.152;2023-04-04T05:13:47;98838.85;;;0.47;56.10
41306;BME280;27051;50.376;19.152;2023-04-04T05:16:14;98839.04;;;0.51;56.36
41306;BME280;27051;50.376;19.152;2023-04-04T05:18:40;98838.45;;;0.53;56.13
41306;BME280;27051;50.376;19.152;2023-04-04T05:21:07;98840.35;;;0.50;56.10
41306;BME280;27051;50.376;19.152;2023-04-04T05:23:33;98843.63;;;0.51;56.16
41306;BME280;27051;50.376;19.152;2023-04-04T05:25:59;98843.02;;;0.55;56.18
41306;BME280;27051;50.376;19.152;2023-04-04T05:28:26;98846.97;;;0.59;56.07
41306;BME280;27051;50.376;19.152;2023-04-04T05:30:53;98845.60;;;0.69;56.05
41306;BME280;27051;50.376;19.152;2023-04-04T05:33:19;98842.89;;;0.76;56.22
41306;BME280;27051;50.376;19.152;2023-04-04T05:35:45;98844.60;;;0.80;55.93
41306;BME280;27051;50.376;19.152;2023-04-04T05:38:12;98845.63;;;0.85;56.04
41306;BME280;27051;50.376;19.152;2023-04-04T05:40:38;98841.86;;;0.84;55.72
41306;BME280;27051;50.376;19.152;2023-04-04T05:43:04;98845.84;;;0.84;55.85
41306;BME280;27051;50.376;19.152;2023-04-04T05:45:31;98848.97;;;0.86;56.06
41306;BME280;27051;50.376;19.152;2023-04-04T05:47:57;98850.78;;;0.89;55.88
41306;BME280;27051;50.376;19.152;2023-04-04T05:50:24;98848.59;;;0.86;56.04
41306;BME280;27051;50.376;19.152;2023-04-04T05:52:53;98852.20;;;0.87;55.95
41306;BME280;27051;50.376;19.152;2023-04-04T05:55:19;98850.79;;;0.89;55.88
41306;BME280;27051;50.376;19.152;2023-04-04T05:57:50;98848.85;;;0.92;56.06
41306;BME280;27051;50.376;19.152;2023-04-04T06:00:17;98844.64;;;1.01;56.05
41306;BME280;27051;50.376;19.152;2023-04-04T06:02:44;98844.12;;;0.98;55.83
41306;BME280;27051;50.376;19.152;2023-04-04T06:05:10;98844.15;;;0.94;55.89
41306;BME280;27051;50.376;19.152;2023-04-04T06:07:37;98850.02;;;0.96;55.77
41306;BME280;27051;50.376;19.152;2023-04-04T06:10:09;98847.88;;;0.98;55.76
41306;BME280;27051;50.376;19.152;2023-04-04T06:12:36;98853.01;;;0.98;55.74
41306;BME280;27051;50.376;19.152;2023-04-04T06:15:02;98849.95;;;1.01;55.69
41306;BME280;27051;50.376;19.152;2023-04-04T06:17:29;98845.05;;;1.04;55.76
41306;BME280;27051;50.376;19.152;2023-04-04T06:19:55;98849.58;;;1.11;55.87
41306;BME280;27051;50.376;19.152;2023-04-04T06:22:22;98844.47;;;1.20;55.76
41306;BME280;27051;50.376;19.152;2023-04-04T06:24:48;98841.66;;;1.33;55.80
41306;BME280;27051;50.376;19.152;2023-04-04T06:27:15;98844.23;;;1.42;55.52
41306;BME280;27051;50.376;19.152;2023-04-04T06:29:41;98843.23;;;1.48;55.50
41306;BME280;27051;50.376;19.152;2023-04-04T06:32:08;98838.37;;;1.50;55.28
41306;BME280;27051;50.376;19.152;2023-04-04T06:34:34;98837.96;;;1.56;55.21
41306;BME280;27051;50.376;19.152;2023-04-04T06:37:00;98832.56;;;1.59;55.15
41306;BME280;27051;50.376;19.152;2023-04-04T06:39:27;98836.02;;;1.65;55.07
41306;BME280;27051;50.376;19.152;2023-04-04T06:41:53;98830.30;;;1.70;54.99
41306;BME280;27051;50.376;19.152;2023-04-04T06:44:20;98833.55;;;1.77;54.84
41306;BME280;27051;50.376;19.152;2023-04-04T06:46:46;98832.73;;;1.84;54.59
41306;BME280;27051;50.376;19.152;2023-04-04T06:49:12;98833.14;;;1.89;54.28
41306;BME280;27051;50.376;19.152;2023-04-04T06:51:39;98831.46;;;1.98;54.09
41306;BME280;27051;50.376;19.152;2023-04-04T06:54:06;98832.41;;;2.06;54.33
41306;BME280;27051;50.376;19.152;2023-04-04T06:56:33;98832.63;;;2.10;53.84
41306;BME280;27051;50.376;19.152;2023-04-04T06:58:59;98834.70;;;2.12;54.20
41306;BME280;27051;50.376;19.152;2023-04-04T07:01:35;98840.00;;;2.26;54.28
41306;BME280;27051;50.376;19.152;2023-04-04T07:04:02;98836.06;;;2.44;54.14
41306;BME280;27051;50.376;19.152;2023-04-04T07:06:28;98836.16;;;2.59;54.11
41306;BME280;27051;50.376;19.152;2023-04-04T07:08:55;98839.79;;;2.75;53.95
41306;BME280;27051;50.376;19.152;2023-04-04T07:11:21;98832.04;;;2.92;54.07
41306;BME280;27051;50.376;19.152;2023-04-04T07:13:48;98828.19;;;3.04;53.40
41306;BME280;27051;50.376;19.152;2023-04-04T07:16:14;98829.36;;;3.14;53.59
41306;BME280;27051;50.376;19.152;2023-04-04T07:18:41;98830.70;;;3.26;53.40
41306;BME280;27051;50.376;19.152;2023-04-04T07:21:07;98833.50;;;3.38;53.37
41306;BME280;27051;50.376;19.152;2023-04-04T07:23:34;98828.40;;;3.49;53.48
41306;BME280;27051;50.376;19.152;2023-04-04T07:26:00;98826.98;;;3.67;53.12
41306;BME280;27051;50.376;19.152;2023-04-04T07:28:26;98826.40;;;3.80;52.95
41306;BME280;27051;50.376;19.152;2023-04-04T07:30:53;98826.73;;;3.95;53.02
41306;BME280;27051;50.376;19.152;2023-04-04T07:33:19;98825.27;;;4.12;52.79
41306;BME280;27051;50.376;19.152;2023-04-04T07:35:46;98825.39;;;4.29;52.90
41306;BME280;27051;50.376;19.152;2023-04-04T07:38:12;98831.26;;;4.46;52.62
41306;BME280;27051;50.376;19.152;2023-04-04T07:40:38;98828.86;;;4.57;52.22
41306;BME280;27051;50.376;19.152;2023-04-04T07:43:06;98830.38;;;4.61;51.72
41306;BME280;27051;50.376;19.152;2023-04-04T07:45:33;98832.55;;;4.69;51.84
41306;BME280;27051;50.376;19.152;2023-04-04T07:48:01;98833.89;;;4.76;51.40
41306;BME280;27051;50.376;19.152;2023-04-04T07:50:28;98828.82;;;4.88;51.64
41306;BME280;27051;50.376;19.152;2023-04-04T07:52:54;98829.84;;;4.96;51.42
41306;BME280;27051;50.376;19.152;2023-04-04T07:55:21;98833.04;;;5.11;50.69
41306;BME280;27051;50.376;19.152;2023-04-04T07:57:47;98824.46;;;5.24;50.76
41306;BME280;27051;50.376;19.152;2023-04-04T08:00:14;98819.89;;;5.36;50.41
41306;BME280;27051;50.376;19.152;2023-04-04T08:02:42;98813.91;;;5.48;50.01
41306;BME280;27051;50.376;19.152;2023-04-04T08:05:09;98812.93;;;5.61;49.88
41306;BME280;27051;50.376;19.152;2023-04-04T08:07:36;98811.32;;;5.77;49.61
41306;BME280;27051;50.376;19.152;2023-04-04T08:10:03;98810.86;;;5.98;49.78
41306;BME280;27051;50.376;19.152;2023-04-04T08:12:30;98813.59;;;6.31;49.62
41306;BME280;27051;50.376;19.152;2023-04-04T08:14:56;98804.81;;;6.60;49.42
41306;BME280;27051;50.376;19.152;2023-04-04T08:17:23;98805.66;;;6.83;48.70
41306;BME280;27051;50.376;19.152;2023-04-04T08:19:49;98801.63;;;7.04;48.93
41306;BME280;27051;50.376;19.152;2023-04-04T08:22:16;98799.60;;;7.25;47.81
41306;BME280;27051;50.376;19.152;2023-04-04T08:24:43;98801.06;;;7.49;48.16
41306;BME280;27051;50.376;19.152;2023-04-04T08:27:11;98804.91;;;7.72;47.86
41306;BME280;27051;50.376;19.152;2023-04-04T08:29:37;98801.08;;;8.01;48.14
41306;BME280;27051;50.376;19.152;2023-04-04T08:32:04;98800.52;;;8.23;46.83
41306;BME280;27051;50.376;19.152;2023-04-04T08:34:30;98800.78;;;8.37;47.05
41306;BME280;27051;50.376;19.152;2023-04-04T08:36:57;98800.29;;;8.42;46.84
41306;BME280;27051;50.376;19.152;2023-04-04T08:39:25;98801.67;;;8.49;46.80
41306;BME280;27051;50.376;19.152;2023-04-04T08:42:00;98802.26;;;8.64;46.23
41306;BME280;27051;50.376;19.152;2023-04-04T08:44:27;98796.58;;;8.78;45.92
41306;BME280;27051;50.376;19.152;2023-04-04T08:46:55;98797.33;;;8.84;45.90
41306;BME280;27051;50.376;19.152;2023-04-04T08:49:25;98796.66;;;8.94;46.15
41306;BME280;27051;50.376;19.152;2023-04-04T08:51:52;98795.63;;;9.20;45.89
41306;BME280;27051;50.376;19.152;2023-04-04T08:54:21;98796.43;;;9.25;44.53
41306;BME280;27051;50.376;19.152;2023-04-04T08:56:50;98794.47;;;9.23;44.48
41306;BME280;27051;50.376;19.152;2023-04-04T08:59:16;98788.41;;;9.23;44.68
41306;BME280;27051;50.376;19.152;2023-04-04T09:01:43;98793.30;;;9.24;44.59
41306;BME280;27051;50.376;19.152;2023-04-04T09:04:10;98790.57;;;9.20;44.63
41306;BME280;27051;50.376;19.152;2023-04-04T09:06:37;98790.16;;;9.18;43.90
41306;BME280;27051;50.376;19.152;2023-04-04T09:09:06;98787.23;;;8.97;43.22
41306;BME280;27051;50.376;19.152;2023-04-04T09:11:33;98787.73;;;8.77;43.04
41306;BME280;27051;50.376;19.152;2023-04-04T09:14:03;98787.70;;;8.61;43.68
41306;BME280;27051;50.376;19.152;2023-04-04T09:16:30;98788.19;;;8.55;43.37
41306;BME280;27051;50.376;19.152;2023-04-04T09:18:56;98786.77;;;8.64;43.54
41306;BME280;27051;50.376;19.152;2023-04-04T09:21:23;98777.21;;;8.70;43.10
41306;BME280;27051;50.376;19.152;2023-04-04T09:24:00;98773.58;;;8.72;43.20
41306;BME280;27051;50.376;19.152;2023-04-04T09:26:26;98769.84;;;8.57;42.84
41306;BME280;27051;50.376;19.152;2023-04-04T09:28:53;98770.75;;;8.38;42.89
41306;BME280;27051;50.376;19.152;2023-04-04T09:31:20;98775.13;;;8.43;42.94
41306;BME280;27051;50.376;19.152;2023-04-04T09:33:49;98771.13;;;8.61;42.46
41306;BME280;27051;50.376;19.152;2023-04-04T09:36:16;98777.90;;;8.59;41.69
41306;BME280;27051;50.376;19.152;2023-04-04T09:38:42;98781.91;;;8.42;41.68
41306;BME280;27051;50.376;19.152;2023-04-04T09:41:09;98780.67;;;8.38;42.05
41306;BME280;27051;50.376;19.152;2023-04-04T09:43:39;98784.15;;;8.23;42.23
41306;BME280;27051;50.376;19.152;2023-04-04T09:46:05;98783.75;;;8.41;41.97
41306;BME280;27051;50.376;19.152;2023-04-04T09:48:33;98781.19;;;9.25;41.99
41306;BME280;27051;50.376;19.152;2023-04-04T09:51:03;98785.30;;;10.01;40.32
41306;BME280;27051;50.376;19.152;2023-04-04T09:53:33;98782.21;;;10.13;40.90
41306;BME280;27051;50.376;19.152;2023-04-04T09:55:59;98781.70;;;10.01;40.68
41306;BME280;27051;50.376;19.152;2023-04-04T09:58:28;98781.10;;;9.80;40.36
41306;BME280;27051;50.376;19.152;2023-04-04T10:01:00;98777.88;;;9.49;40.55
41306;BME280;27051;50.376;19.152;2023-04-04T10:03:29;98778.54;;;9.74;41.60
41306;BME280;27051;50.376;19.152;2023-04-04T10:06:03;98778.59;;;10.68;41.05
41306;BME280;27051;50.376;19.152;2023-04-04T10:08:30;98772.46;;;11.76;39.53
41306;BME280;27051;50.376;19.152;2023-04-04T10:10:59;98769.08;;;12.28;39.44
41306;BME280;27051;50.376;19.152;2023-04-04T10:13:29;98766.34;;;12.36;38.83
41306;BME280;27051;50.376;19.152;2023-04-04T10:15:57;98766.21;;;12.11;37.72
41306;BME280;27051;50.376;19.152;2023-04-04T10:18:25;98769.43;;;11.79;37.43
41306;BME280;27051;50.376;19.152;2023-04-04T10:20:54;98768.47;;;11.46;37.64
41306;BME280;27051;50.376;19.152;2023-04-04T10:23:21;98768.16;;;11.26;38.18
41306;BME280;27051;50.376;19.152;2023-04-04T10:25:48;98769.27;;;11.18;36.76
41306;BME280;27051;50.376;19.152;2023-04-04T10:28:18;98769.45;;;11.15;37.92
41306;BME280;27051;50.376;19.152;2023-04-04T10:33:49;98770.25;;;10.69;37.89
41306;BME280;27051;50.376;19.152;2023-04-04T10:36:28;98770.14;;;10.31;37.74
41306;BME280;27051;50.376;19.152;2023-04-04T10:39:13;98765.61;;;9.98;38.45
41306;BME280;27051;50.376;19.152;2023-04-04T10:41:40;98766.39;;;9.79;37.74
41306;BME280;27051;50.376;19.152;2023-04-04T10:44:37;98764.40;;;9.72;37.81
41306;BME280;27051;50.376;19.152;2023-04-04T10:47:19;98762.82;;;9.99;37.93
41306;BME280;27051;50.376;19.152;2023-04-04T10:49:48;98767.34;;;10.61;37.76
41306;BME280;27051;50.376;19.152;2023-04-04T10:52:17;98770.28;;;11.01;36.91
41306;BME280;27051;50.376;19.152;2023-04-04T10:54:44;98767.70;;;11.21;36.60
41306;BME280;27051;50.376;19.152;2023-04-04T10:57:11;98761.75;;;12.04;35.58
41306;BME280;27051;50.376;19.152;2023-04-04T11:00:15;98762.96;;;12.50;35.83
41306;BME280;27051;50.376;19.152;2023-04-04T11:05:31;98760.89;;;12.07;35.53
41306;BME280;27051;50.376;19.152;2023-04-04T11:08:03;98756.70;;;12.01;36.05
41306;BME280;27051;50.376;19.152;2023-04-04T11:10:30;98755.91;;;12.98;35.22
41306;BME280;27051;50.376;19.152;2023-04-04T11:18:19;98753.95;;;13.66;34.60
41306;BME280;27051;50.376;19.152;2023-04-04T11:20:46;98746.65;;;13.81;33.95
41306;BME280;27051;50.376;19.152;2023-04-04T11:23:18;98751.70;;;13.55;33.69
41306;BME280;27051;50.376;19.152;2023-04-04T11:25:55;98751.95;;;13.06;34.06
41306;BME280;27051;50.376;19.152;2023-04-04T11:28:48;98754.30;;;12.56;34.13
41306;BME280;27051;50.376;19.152;2023-04-04T11:34:45;98754.61;;;11.82;34.62
41306;BME280;27051;50.376;19.152;2023-04-04T11:36:51;98748.95;;;11.47;34.62
41306;BME280;27051;50.376;19.152;2023-04-04T11:39:30;98750.55;;;11.24;34.56
41306;BME280;27051;50.376;19.152;2023-04-04T11:42:06;98746.09;;;11.15;34.24
41306;BME280;27051;50.376;19.152;2023-04-04T11:45:02;98745.27;;;11.77;34.39
41306;BME280;27051;50.376;19.152;2023-04-04T11:47:28;98734.58;;;13.79;33.77
41306;BME280;27051;50.376;19.152;2023-04-04T11:49:55;98728.48;;;15.65;32.15
41306;BME280;27051;50.376;19.152;2023-04-04T11:52:21;98717.17;;;17.35;31.10
41306;BME280;27051;50.376;19.152;2023-04-04T11:54:48;98706.49;;;19.13;30.57
41306;BME280;27051;50.376;19.152;2023-04-04T11:57:19;98703.64;;;20.71;28.98
41306;BME280;27051;50.376;19.152;2023-04-04T11:59:50;98712.23;;;20.68;29.17
41306;BME280;27051;50.376;19.152;2023-04-04T12:02:22;98713.80;;;19.41;28.39
41306;BME280;27051;50.376;19.152;2023-04-04T12:04:50;98716.04;;;18.50;28.54
41306;BME280;27051;50.376;19.152;2023-04-04T12:07:17;98713.29;;;18.90;27.85
41306;BME280;27051;50.376;19.152;2023-04-04T12:09:44;98717.04;;;20.36;27.46
41306;BME280;27051;50.376;19.152;2023-04-04T12:12:12;98716.61;;;21.96;26.98
41306;BME280;27051;50.376;19.152;2023-04-04T12:14:39;98718.48;;;23.45;26.91
41306;BME280;27051;50.376;19.152;2023-04-04T12:17:05;98717.41;;;23.13;25.74
41306;BME280;27051;50.376;19.152;2023-04-04T12:19:35;98716.00;;;22.30;24.73
41306;BME280;27051;50.376;19.152;2023-04-04T12:22:02;98724.14;;;20.67;26.59
41306;BME280;27051;50.376;19.152;2023-04-04T12:24:28;98723.85;;;20.59;26.40
41306;BME280;27051;50.376;19.152;2023-04-04T12:26:55;98714.59;;;22.39;25.18
41306;BME280;27051;50.376;19.152;2023-04-04T12:29:21;98714.03;;;23.99;24.13
41306;BME280;27051;50.376;19.152;2023-04-04T12:31:49;98715.00;;;25.39;22.93
41306;BME280;27051;50.376;19.152;2023-04-04T12:34:17;98719.91;;;25.60;22.21
41306;BME280;27051;50.376;19.152;2023-04-04T12:36:47;98724.03;;;23.76;24.01
41306;BME280;27051;50.376;19.152;2023-04-04T12:39:15;98725.77;;;21.69;23.93
41306;BME280;27051;50.376;19.152;2023-04-04T12:41:57;98727.00;;;19.91;24.47
41306;BME280;27051;50.376;19.152;2023-04-04T12:44:34;98725.56;;;18.22;25.07
41306;BME280;27051;50.376;19.152;2023-04-04T12:47:04;98731.81;;;16.78;25.60
41306;BME280;27051;50.376;19.152;2023-04-04T12:49:34;98732.57;;;15.90;26.23
41306;BME280;27051;50.376;19.152;2023-04-04T12:52:06;98735.27;;;15.26;26.62
41306;BME280;27051;50.376;19.152;2023-04-04T12:54:37;98731.67;;;14.56;26.62
41306;BME280;27051;50.376;19.152;2023-04-04T12:57:05;98738.40;;;13.79;27.04
41306;BME280;27051;50.376;19.152;2023-04-04T12:59:33;98742.66;;;13.16;27.40
41306;BME280;27051;50.376;19.152;2023-04-04T13:02:02;98743.87;;;12.65;27.94
41306;BME280;27051;50.376;19.152;2023-04-04T13:04:30;98743.42;;;12.09;28.12
41306;BME280;27051;50.376;19.152;2023-04-04T13:06:56;98744.06;;;11.56;28.47
41306;BME280;27051;50.376;19.152;2023-04-04T13:09:24;98746.54;;;11.09;28.73
41306;BME280;27051;50.376;19.152;2023-04-04T13:11:58;98752.33;;;10.60;28.97
41306;BME280;27051;50.376;19.152;2023-04-04T13:17:11;98752.55;;;9.83;29.70
41306;BME280;27051;50.376;19.152;2023-04-04T13:19:37;98751.27;;;9.59;29.90
41306;BME280;27051;50.376;19.152;2023-04-04T13:22:07;98750.77;;;9.38;30.51